Time;durP1;ratioP1;P1;durP2;ratioP2;P2;SDS_P1;SDS_P2;PMS_P1;PMS_P2;Temp;Humidity;BMP_temperature;BMP_pressure;BME280_temperature;BME280_humidity;BME280_pressure;Samples;Min_cycle;Max_cycle;Signal;HPM_P1;HPM_P2
2021/12/19 00:00:40;;;;;;;22.20;14.80;;;;;;;3.09;77.42;97056.00;4953579;29;20788;-82
2021/12/19 00:03:30;;;;;;;21.33;14.83;;;;;;;3.09;77.44;97053.47;4953286;28;20232;-82
2021/12/19 00:08:49;;;;;;;21.90;14.43;;;;;;;3.15;76.83;97054.81;4936617;29;20241;-82
2021/12/19 00:11:17;;;;;;;21.57;14.23;;;;;;;3.15;77.33;97073.44;4937114;29;20306;-82
2021/12/19 00:13:43;;;;;;;22.47;13.70;;;;;;;3.19;77.09;97080.00;4956533;28;20241;-82
2021/12/19 00:16:10;;;;;;;21.03;14.00;;;;;;;3.23;77.06;97073.00;4957746;28;20263;-82
2021/12/19 00:18:36;;;;;;;21.37;13.57;;;;;;;3.29;76.83;97072.59;4957222;29;20200;-83
2021/12/19 00:21:04;;;;;;;24.17;13.83;;;;;;;3.27;76.75;97072.69;4957380;28;20220;-82
2021/12/19 00:23:31;;;;;;;24.37;14.20;;;;;;;3.13;77.56;97067.63;4956778;28;20236;-82
2021/12/19 00:25:58;;;;;;;22.77;13.57;;;;;;;3.18;76.72;97062.25;4957209;29;20200;-83
2021/12/19 00:28:25;;;;;;;24.23;13.83;;;;;;;3.10;77.62;97063.53;4957896;28;20632;-83
2021/12/19 00:30:51;;;;;;;21.33;13.47;;;;;;;3.13;77.45;97055.72;4950337;29;20235;-83
2021/12/19 00:33:18;;;;;;;19.63;12.93;;;;;;;3.17;77.48;97050.44;4957377;28;20239;-82
2021/12/19 00:35:44;;;;;;;22.93;14.27;;;;;;;3.19;77.39;97041.81;4956874;29;20205;-82
2021/12/19 00:38:12;;;;;;;21.57;14.10;;;;;;;3.18;77.23;97050.34;4957410;28;20200;-82
2021/12/19 00:40:39;;;;;;;22.33;13.73;;;;;;;3.13;77.63;97037.09;4960995;28;20255;-82
2021/12/19 00:43:06;;;;;;;24.83;14.17;;;;;;;3.05;78.30;97024.03;4976321;28;20660;-82
2021/12/19 00:45:35;;;;;;;21.20;13.70;;;;;;;2.99;78.57;97042.22;4962634;28;20764;-82
2021/12/19 00:48:05;;;;;;;19.20;13.37;;;;;;;3.01;78.69;97050.59;4957595;29;20201;-82
2021/12/19 00:50:33;;;;;;;22.67;13.40;;;;;;;3.07;77.94;97052.75;4960735;28;20881;-83
2021/12/19 00:53:00;;;;;;;21.13;13.33;;;;;;;3.04;77.39;97052.94;4976888;28;20634;-82
2021/12/19 00:55:28;;;;;;;20.17;13.27;;;;;;;2.92;77.47;97053.66;4963854;28;20204;-82
2021/12/19 00:57:56;;;;;;;19.03;12.20;;;;;;;2.89;78.48;97038.59;4957196;29;20224;-83
2021/12/19 01:00:26;;;;;;;17.57;12.30;;;;;;;2.81;78.23;97043.34;4956262;29;20221;-82
2021/12/19 01:02:57;;;;;;;17.17;11.40;;;;;;;2.69;79.45;97058.41;4956131;28;20670;-83
2021/12/19 01:05:23;;;;;;;20.10;12.93;;;;;;;2.71;79.52;97050.69;4956823;28;20212;-82
2021/12/19 01:07:50;;;;;;;18.03;12.10;;;;;;;2.74;79.37;97045.44;4956091;29;20212;-82
2021/12/19 01:10:18;;;;;;;19.33;12.50;;;;;;;2.77;78.96;97040.16;4958351;28;20220;-82
2021/12/19 01:12:46;;;;;;;18.97;12.77;;;;;;;2.70;79.40;97037.16;4960307;28;20243;-83
2021/12/19 01:15:15;;;;;;;19.83;12.63;;;;;;;2.68;79.24;97028.84;4959454;29;20212;-83
2021/12/19 01:17:42;;;;;;;20.60;12.17;;;;;;;2.61;79.28;97030.09;4959215;28;20288;-83
2021/12/19 01:20:13;;;;;;;16.13;11.10;;;;;;;2.67;79.52;97031.47;4958934;29;20213;-83
2021/12/19 01:22:40;;;;;;;18.23;11.97;;;;;;;2.64;79.37;97024.03;4957506;28;20237;-83
2021/12/19 01:25:06;;;;;;;19.00;12.03;;;;;;;2.68;79.16;97020.38;4958609;28;20233;-83
2021/12/19 01:27:33;;;;;;;18.07;11.93;;;;;;;2.71;79.44;97031.16;4958963;28;20673;-83
2021/12/19 01:30:01;;;;;;;18.07;12.57;;;;;;;2.71;79.67;97030.34;4959126;29;20215;-83
2021/12/19 01:32:27;;;;;;;19.73;12.50;;;;;;;2.74;79.39;97027.63;4957825;28;20229;-82
2021/12/19 01:34:53;;;;;;;20.97;13.30;;;;;;;2.81;79.02;97026.34;4958085;29;20205;-82
2021/12/19 01:37:20;;;;;;;20.77;13.23;;;;;;;2.85;79.18;97032.91;4957589;29;20208;-82
2021/12/19 01:39:46;;;;;;;18.73;12.27;;;;;;;2.90;78.99;97022.41;4957590;28;20672;-83
2021/12/19 01:42:13;;;;;;;19.23;12.70;;;;;;;2.97;78.43;97031.31;4963326;28;20259;-83
2021/12/19 01:44:40;;;;;;;18.63;12.33;;;;;;;3.01;78.17;97028.50;4956809;29;20767;-83
2021/12/19 01:47:07;;;;;;;20.87;13.10;;;;;;;2.96;78.66;97016.97;4957006;28;20205;-82
2021/12/19 01:49:34;;;;;;;21.03;12.57;;;;;;;2.97;78.76;97027.06;4957583;29;20212;-83
2021/12/19 01:52:00;;;;;;;19.60;12.83;;;;;;;3.02;77.74;97039.50;4971768;28;20735;-83
2021/12/19 01:54:27;;;;;;;20.77;12.70;;;;;;;2.98;77.91;97035.50;4975672;28;20208;-82
2021/12/19 01:56:53;;;;;;;18.33;12.77;;;;;;;2.96;77.52;97027.16;4957036;29;20200;-83
2021/12/19 01:59:20;;;;;;;18.77;12.57;;;;;;;3.00;77.59;97031.13;4956823;29;20232;-82
2021/12/19 02:01:50;;;;;;;17.50;12.03;;;;;;;3.06;77.32;97028.22;4955912;28;20247;-82
2021/12/19 02:04:21;;;;;;;17.53;12.47;;;;;;;3.01;77.27;97030.22;4956317;28;20234;-83
2021/12/19 02:06:48;;;;;;;19.00;12.63;;;;;;;2.92;77.92;97035.88;4956100;28;20196;-83
2021/12/19 02:09:15;;;;;;;20.97;13.73;;;;;;;2.94;77.91;97028.97;4956532;28;20217;-83
2021/12/19 02:11:42;;;;;;;21.13;13.67;;;;;;;2.97;77.58;97021.97;4956027;28;20240;-83
2021/12/19 02:14:12;;;;;;;21.07;13.57;;;;;;;2.92;77.56;97023.97;4956897;28;20208;-83
2021/12/19 02:16:40;;;;;;;18.80;13.00;;;;;;;2.76;78.62;97019.00;4956299;28;20197;-82
2021/12/19 02:19:07;;;;;;;20.73;13.53;;;;;;;2.82;77.93;97032.25;4937409;29;20216;-83
2021/12/19 02:21:36;;;;;;;19.03;12.93;;;;;;;2.83;77.31;97019.47;4949842;28;20229;-82
2021/12/19 02:24:07;;;;;;;19.60;12.70;;;;;;;2.88;77.05;97016.63;4956284;29;20221;-82
2021/12/19 02:26:34;;;;;;;18.87;12.97;;;;;;;2.80;76.99;97023.91;4955558;29;20197;-82
2021/12/19 02:29:00;;;;;;;21.37;14.07;;;;;;;2.72;76.87;97025.19;4955269;29;20212;-83
2021/12/19 02:31:28;;;;;;;19.27;13.20;;;;;;;2.68;77.38;97022.94;4954788;28;20742;-82
2021/12/19 02:34:02;;;;;;;20.33;13.40;;;;;;;2.73;77.41;97023.44;4955312;28;20652;-82
2021/12/19 02:36:42;;;;;;;19.97;13.40;;;;;;;2.71;77.34;97012.56;4954475;29;20200;-82
2021/12/19 02:39:36;;;;;;;18.53;13.40;;;;;;;2.72;77.24;97011.63;4955931;29;20300;-83
2021/12/19 02:50:25;;;;;;;25.53;13.93;;;;;;;2.61;77.96;97016.56;4945280;28;20727;-82
2021/12/19 02:52:53;;;;;;;21.33;13.47;;;;;;;2.55;78.11;97011.84;4974908;28;20240;-83
2021/12/19 02:55:22;;;;;;;22.23;14.23;;;;;;;2.62;77.92;97013.13;4969107;28;20193;-82
2021/12/19 02:57:49;;;;;;;22.77;14.30;;;;;;;2.68;77.83;97017.84;4956036;28;20204;-82
2021/12/19 03:00:21;;;;;;;22.53;14.43;;;;;;;2.78;77.40;97014.63;4954967;28;20246;-83
2021/12/19 03:02:48;;;;;;;22.70;14.37;;;;;;;2.73;77.31;97014.09;4954257;28;20241;-82
2021/12/19 03:05:15;;;;;;;24.67;14.37;;;;;;;2.75;77.22;97009.72;4953952;28;20279;-82
2021/12/19 03:07:43;;;;;;;20.93;14.00;;;;;;;2.81;77.40;97006.00;4954272;28;20216;-83
2021/12/19 03:10:41;;;;;;;22.87;14.27;;;;;;;2.79;76.65;97005.28;4954268;28;20201;-82
2021/12/19 03:13:18;;;;;;;22.00;13.87;;;;;;;2.80;76.38;97004.38;4953996;28;20315;-82
2021/12/19 03:18:30;;;;;;;20.77;13.43;;;;;;;2.74;76.58;97013.19;4953751;29;20204;-82
2021/12/19 03:20:57;;;;;;;22.77;14.50;;;;;;;2.62;77.46;97013.94;4954154;29;20225;-82
2021/12/19 03:23:24;;;;;;;23.73;14.50;;;;;;;2.62;76.94;97010.59;4953271;28;20669;-82
2021/12/19 03:25:51;;;;;;;24.60;14.07;;;;;;;2.58;77.05;96997.22;4954209;28;20197;-83
2021/12/19 03:28:18;;;;;;;19.80;13.60;;;;;;;2.61;77.04;96991.97;4953833;28;20708;-82
2021/12/19 03:30:47;;;;;;;22.80;13.83;;;;;;;2.63;76.89;96984.25;4954286;28;20217;-83
2021/12/19 03:33:13;;;;;;;21.83;14.23;;;;;;;2.61;77.13;96964.00;4954004;28;20228;-82
2021/12/19 03:35:41;;;;;;;22.87;14.07;;;;;;;2.65;76.90;96957.81;4954344;28;20233;-82
2021/12/19 03:38:12;;;;;;;22.03;13.80;;;;;;;2.64;76.57;96961.28;4955782;28;20209;-83
2021/12/19 03:40:42;;;;;;;22.23;14.37;;;;;;;2.68;76.71;96959.38;4956916;28;20216;-83
2021/12/19 03:43:11;;;;;;;24.47;15.03;;;;;;;2.62;76.68;96963.09;4956809;28;20238;-83
2021/12/19 03:45:40;;;;;;;25.30;14.53;;;;;;;2.63;76.94;96964.72;4956068;28;20221;-83
2021/12/19 03:48:11;;;;;;;21.63;14.40;;;;;;;2.64;77.19;96968.91;4956457;29;20209;-83
2021/12/19 03:50:38;;;;;;;26.27;14.67;;;;;;;2.71;77.18;96959.97;4955727;28;20263;-82
2021/12/19 03:53:04;;;;;;;24.57;14.90;;;;;;;2.63;77.28;96957.09;4955835;28;20303;-83
2021/12/19 03:55:31;;;;;;;22.40;14.33;;;;;;;2.49;77.37;96966.47;4956019;29;20552;-82
2021/12/19 03:57:59;;;;;;;23.83;14.00;;;;;;;2.43;77.28;96965.13;4955214;29;20205;-83
2021/12/19 04:00:27;;;;;;;24.23;14.23;;;;;;;2.42;77.56;96971.09;4955826;28;20648;-82
2021/12/19 04:02:58;;;;;;;23.57;14.00;;;;;;;2.37;76.50;96970.56;4954527;28;20264;-83
2021/12/19 04:05:25;;;;;;;22.77;13.33;;;;;;;2.38;76.56;96965.38;4954830;29;20689;-82
2021/12/19 04:07:52;;;;;;;23.20;14.43;;;;;;;2.28;76.62;96963.50;4954821;29;20216;-83
2021/12/19 04:10:21;;;;;;;24.60;13.67;;;;;;;2.23;77.33;96963.78;4955096;28;20224;-83
2021/12/19 04:12:47;;;;;;;22.57;13.33;;;;;;;2.21;77.26;96952.88;4955107;28;20240;-82
2021/12/19 04:15:14;;;;;;;24.33;14.10;;;;;;;2.19;77.69;96954.69;4954580;29;20568;-83
2021/12/19 04:17:40;;;;;;;22.80;13.83;;;;;;;2.21;78.03;96949.50;4955134;28;20208;-83
2021/12/19 04:20:09;;;;;;;25.03;14.30;;;;;;;2.20;77.97;96942.81;4954752;28;20197;-83
2021/12/19 04:22:36;;;;;;;22.70;13.27;;;;;;;2.25;77.27;96940.81;4954291;28;20718;-82
2021/12/19 04:25:02;;;;;;;21.50;13.37;;;;;;;2.26;77.45;96948.34;4954855;29;20220;-83
2021/12/19 04:27:29;;;;;;;24.03;14.43;;;;;;;2.30;77.58;96941.34;4954775;28;20204;-83
2021/12/19 04:29:55;;;;;;;25.07;14.90;;;;;;;2.32;77.65;96939.50;4954196;28;20212;-82
2021/12/19 04:32:26;;;;;;;23.00;13.53;;;;;;;2.30;77.37;96942.19;4954413;28;20236;-83
2021/12/19 04:34:53;;;;;;;22.43;13.80;;;;;;;2.32;76.85;96945.41;4953963;28;20193;-82
2021/12/19 04:37:42;;;;;;;20.93;13.13;;;;;;;2.25;77.23;96936.53;4953912;29;20207;-82
2021/12/19 04:40:14;;;;;;;23.57;13.73;;;;;;;2.25;77.01;96936.53;4954148;29;20200;-82
2021/12/19 04:43:51;;;;;;;23.73;14.57;;;;;;;2.19;77.60;96931.00;4934401;28;20233;-82
2021/12/19 04:51:42;;;;;;;20.57;12.67;;;;;;;2.11;77.92;96921.31;4953325;28;20775;-82
2021/12/19 04:54:24;;;;;;;23.40;14.80;;;;;;;2.13;77.54;96913.56;4953072;28;20669;-82
2021/12/19 04:57:03;;;;;;;23.40;14.00;;;;;;;2.19;77.50;96918.31;4954934;28;20228;-82
2021/12/19 04:59:53;;;;;;;25.53;14.60;;;;;;;2.23;77.85;96920.56;4957599;29;20216;-83
2021/12/19 05:02:36;;;;;;;24.03;15.03;;;;;;;2.24;77.37;96914.59;4957767;28;20239;-82
2021/12/19 05:16:13;;;;;;;24.40;14.73;;;;;;;1.91;78.99;96888.66;4945633;29;20226;-81
2021/12/19 05:18:41;;;;;;;23.50;14.33;;;;;;;1.96;78.81;96891.72;4957355;28;20216;-82
2021/12/19 05:21:14;;;;;;;24.57;14.20;;;;;;;2.00;78.38;96888.09;4957014;29;20711;-82
2021/12/19 05:24:03;;;;;;;23.37;14.87;;;;;;;2.02;78.59;96883.75;4959099;28;20236;-82
2021/12/19 05:26:31;;;;;;;22.37;14.10;;;;;;;2.08;78.89;96886.75;4949903;29;20624;-82
2021/12/19 05:28:57;;;;;;;22.83;14.53;;;;;;;2.23;78.40;96896.88;4958819;29;20220;-82
2021/12/19 05:31:24;;;;;;;24.87;13.93;;;;;;;2.27;78.23;96908.50;4958836;28;20736;-81
2021/12/19 05:33:50;;;;;;;22.97;14.63;;;;;;;2.33;77.58;96903.03;4959217;28;20200;-82
2021/12/19 05:47:06;;;;;;;22.00;14.93;;;;;;;2.23;78.04;96922.28;4919241;29;20216;-82
2021/12/19 05:49:34;;;;;;;23.37;14.20;;;;;;;2.20;78.14;96917.41;4954818;29;20204;-82
2021/12/19 05:52:01;;;;;;;24.13;14.53;;;;;;;2.20;77.66;96913.13;4973477;28;20240;-82
2021/12/19 05:54:28;;;;;;;24.07;14.63;;;;;;;2.23;77.72;96902.78;4964160;28;20200;-82
2021/12/19 05:56:55;;;;;;;24.73;14.50;;;;;;;2.14;78.23;96899.97;4958948;29;20271;-81
2021/12/19 05:59:22;;;;;;;23.10;14.10;;;;;;;2.13;78.11;96901.69;4958096;28;20216;-82
2021/12/19 06:01:48;;;;;;;21.27;13.53;;;;;;;2.05;78.15;96896.28;4958742;28;20248;-82
2021/12/19 06:04:15;;;;;;;21.00;14.27;;;;;;;2.04;78.04;96882.75;4958123;28;20224;-81
2021/12/19 06:06:41;;;;;;;22.77;13.83;;;;;;;2.00;79.95;96883.03;4958935;28;20197;-82
2021/12/19 06:09:07;;;;;;;22.17;14.23;;;;;;;2.01;79.16;96893.09;4958097;28;20212;-81
2021/12/19 06:11:34;;;;;;;21.30;14.07;;;;;;;2.01;79.06;96889.72;4957012;28;20221;-81
2021/12/19 06:14:02;;;;;;;22.33;13.73;;;;;;;1.96;79.12;96896.81;4957623;29;20193;-81
2021/12/19 06:16:28;;;;;;;20.13;13.53;;;;;;;1.91;79.05;96894.56;4958418;29;20204;-81
2021/12/19 06:18:55;;;;;;;22.03;14.80;;;;;;;1.91;79.14;96904.72;4959030;28;20197;-81
2021/12/19 06:21:21;;;;;;;22.90;13.60;;;;;;;1.86;79.18;96901.63;4959222;28;20221;-81
2021/12/19 06:23:47;;;;;;;21.47;13.53;;;;;;;1.88;79.49;96894.75;4959550;28;20590;-82
2021/12/19 06:26:14;;;;;;;21.07;14.17;;;;;;;1.97;79.32;96898.44;4954973;28;20275;-82
2021/12/19 06:28:40;;;;;;;22.80;13.50;;;;;;;2.00;78.72;96886.38;4957952;29;20211;-82
2021/12/19 06:31:09;;;;;;;20.43;13.40;;;;;;;1.95;79.29;96887.56;4957585;28;20228;-82
2021/12/19 06:33:35;;;;;;;22.20;14.43;;;;;;;1.92;80.24;96870.81;4956631;28;20224;-82
2021/12/19 06:36:03;;;;;;;20.43;12.83;;;;;;;2.09;88.13;96874.88;4956956;29;20204;-82
2021/12/19 06:38:29;;;;;;;22.17;13.77;;;;;;;2.15;80.73;96868.56;4956557;29;20205;-81
2021/12/19 06:40:56;;;;;;;21.27;13.97;;;;;;;2.16;80.08;96863.41;4955522;28;20220;-82
2021/12/19 06:43:22;;;;;;;19.37;13.87;;;;;;;2.19;79.79;96875.94;4960576;28;20229;-82
2021/12/19 06:45:49;;;;;;;19.93;13.20;;;;;;;2.19;79.72;96885.28;4956749;28;20225;-82
2021/12/19 06:48:19;;;;;;;22.77;14.03;;;;;;;2.20;79.50;96886.91;4957245;29;20297;-82
2021/12/19 06:50:46;;;;;;;21.83;13.97;;;;;;;2.25;79.35;96870.47;4962548;28;20220;-82
2021/12/19 06:53:12;;;;;;;19.43;13.13;;;;;;;2.22;78.63;96869.84;4972772;28;20232;-82
2021/12/19 06:55:38;;;;;;;21.37;13.47;;;;;;;2.19;78.64;96865.75;4956172;28;20194;-82
2021/12/19 06:58:05;;;;;;;22.03;13.10;;;;;;;2.17;78.71;96856.59;4956741;29;20201;-82
2021/12/19 07:00:31;;;;;;;19.60;12.90;;;;;;;2.23;78.21;96869.75;4955604;28;20229;-82
2021/12/19 07:02:58;;;;;;;19.20;13.10;;;;;;;2.31;78.27;96871.84;4955831;28;20233;-82
2021/12/19 07:05:26;;;;;;;19.00;13.20;;;;;;;2.34;78.30;96869.09;4956288;29;20220;-82
2021/12/19 07:07:53;;;;;;;21.57;13.43;;;;;;;2.30;78.17;96867.66;4952423;28;20215;-82
2021/12/19 07:10:19;;;;;;;19.47;13.43;;;;;;;2.27;78.09;96857.69;4952169;29;20208;-82
2021/12/19 07:12:46;;;;;;;21.07;13.30;;;;;;;2.14;78.68;96849.97;4955163;28;20225;-82
2021/12/19 07:15:14;;;;;;;17.43;12.50;;;;;;;2.05;79.60;96845.47;4960570;28;20193;-82
2021/12/19 07:17:41;;;;;;;17.67;11.67;;;;;;;2.05;79.09;96856.44;4964548;28;20201;-82
2021/12/19 07:20:08;;;;;;;15.43;11.53;;;;;;;2.09;79.01;96852.00;4954213;28;20197;-82
2021/12/19 07:22:36;;;;;;;15.77;12.43;;;;;;;2.01;78.79;96855.00;4954229;28;20235;-81
2021/12/19 07:25:03;;;;;;;15.67;11.87;;;;;;;1.80;79.88;96847.84;4955356;28;20224;-81
2021/12/19 07:27:30;;;;;;;16.27;11.37;;;;;;;1.85;79.35;96853.47;4954952;29;20208;-82
2021/12/19 07:29:57;;;;;;;16.10;12.07;;;;;;;1.77;80.19;96845.47;4954846;29;20216;-82
2021/12/19 07:32:24;;;;;;;17.80;12.30;;;;;;;1.75;80.14;96845.56;4954788;28;20236;-82
2021/12/19 07:34:51;;;;;;;15.53;11.07;;;;;;;1.85;79.95;96846.66;4955262;28;20211;-81
2021/12/19 07:37:19;;;;;;;16.33;11.97;;;;;;;1.92;79.70;96850.50;4954189;28;20629;-81
2021/12/19 07:39:55;;;;;;;14.77;10.67;;;;;;;2.00;79.46;96863.53;4950327;28;20212;-82
2021/12/19 07:42:22;;;;;;;15.63;11.40;;;;;;;1.98;78.91;96857.72;4951333;28;20259;-82
2021/12/19 07:44:49;;;;;;;15.60;11.43;;;;;;;2.02;79.18;96856.63;4950526;28;20205;-82
2021/12/19 07:47:16;;;;;;;13.03;10.53;;;;;;;2.04;78.89;96859.91;4954076;28;20201;-81
2021/12/19 07:49:43;;;;;;;14.73;10.87;;;;;;;2.06;78.97;96855.53;4955297;28;20201;-81
2021/12/19 07:52:10;;;;;;;13.67;10.23;;;;;;;2.04;79.19;96849.72;4963998;28;20731;-81
2021/12/19 07:54:36;;;;;;;13.53;10.60;;;;;;;1.93;79.40;96849.56;4955059;28;20201;-82
2021/12/19 07:57:04;;;;;;;14.13;10.63;;;;;;;1.96;79.45;96843.47;4954940;29;20201;-81
2021/12/19 07:59:31;;;;;;;14.30;10.80;;;;;;;2.00;79.29;96837.31;4954850;29;20200;-82
2021/12/19 08:01:58;;;;;;;14.03;10.67;;;;;;;2.02;79.16;96825.34;4953898;28;20227;-82
2021/12/19 08:04:24;;;;;;;14.30;11.13;;;;;;;1.88;79.35;96831.25;4954229;28;20226;-81
2021/12/19 08:06:51;;;;;;;15.53;11.80;;;;;;;1.92;79.08;96826.81;4953448;28;20291;-81
2021/12/19 08:09:25;;;;;;;15.30;12.00;;;;;;;1.96;78.84;96826.50;4954964;29;20208;-82
2021/12/19 08:11:51;;;;;;;14.53;11.07;;;;;;;1.97;79.00;96822.25;4954239;28;20236;-82
2021/12/19 08:14:19;;;;;;;16.80;11.77;;;;;;;1.98;78.72;96827.25;4954389;28;20201;-82
2021/12/19 08:16:47;;;;;;;15.23;11.43;;;;;;;2.04;78.44;96820.97;4954061;29;20271;-82
2021/12/19 08:19:14;;;;;;;14.77;11.80;;;;;;;2.01;78.45;96811.81;4954459;28;20197;-82
2021/12/19 08:21:40;;;;;;;15.17;11.47;;;;;;;1.92;78.93;96809.03;4954150;28;20239;-82
2021/12/19 08:24:11;;;;;;;15.60;11.47;;;;;;;1.91;78.76;96803.13;4960826;29;20580;-82
2021/12/19 08:26:40;;;;;;;15.00;11.57;;;;;;;2.02;78.58;96805.00;4956528;29;20220;-82
2021/12/19 08:29:06;;;;;;;17.17;11.70;;;;;;;2.08;77.85;96800.38;4956503;29;20204;-82
2021/12/19 08:31:34;;;;;;;14.13;11.70;;;;;;;2.12;77.91;96800.19;4955676;28;20217;-82
2021/12/19 08:34:01;;;;;;;14.40;11.73;;;;;;;2.17;77.76;96806.59;4959927;28;20200;-82
2021/12/19 08:36:28;;;;;;;16.00;12.60;;;;;;;2.24;76.87;96799.44;4958896;29;20196;-82
2021/12/19 08:38:54;;;;;;;15.57;11.93;;;;;;;2.31;76.71;96798.16;4959030;28;20204;-82
2021/12/19 08:41:21;;;;;;;14.87;11.43;;;;;;;2.34;76.81;96795.38;4958896;28;20232;-80
2021/12/19 08:43:47;;;;;;;16.53;11.70;;;;;;;2.39;78.64;96811.16;4959406;28;20209;-81
2021/12/19 08:46:15;;;;;;;14.53;11.67;;;;;;;2.33;77.91;96799.66;4971089;28;20267;-82
2021/12/19 08:48:43;;;;;;;14.10;11.30;;;;;;;2.33;76.93;96807.28;4956689;28;20204;-82
2021/12/19 08:51:11;;;;;;;46.20;32.03;;;;;;;2.31;76.51;96805.78;4958114;28;20795;-82
2021/12/19 08:53:37;;;;;;;17.53;14.00;;;;;;;2.38;76.10;96792.56;4963970;28;20236;-82
2021/12/19 08:56:04;;;;;;;17.43;12.87;;;;;;;2.51;76.02;96791.78;4968449;28;20219;-81
2021/12/19 08:58:31;;;;;;;14.03;11.27;;;;;;;2.58;75.20;96788.75;4957824;28;20212;-82
2021/12/19 09:01:01;;;;;;;13.77;10.80;;;;;;;2.52;74.59;96783.25;4956609;28;20224;-82
2021/12/19 09:03:28;;;;;;;15.03;11.20;;;;;;;2.62;84.42;96769.88;4957208;28;20232;-83
2021/12/19 09:05:57;;;;;;;16.97;10.80;;;;;;;3.01;92.94;96778.38;4956834;28;20217;-82
2021/12/19 09:08:23;;;;;;;15.30;11.67;;;;;;;3.26;75.93;96780.13;4957547;28;20238;-82
2021/12/19 09:10:50;;;;;;;13.30;10.70;;;;;;;3.22;73.52;96788.88;4967650;28;20216;-82
2021/12/19 09:13:16;;;;;;;14.67;11.07;;;;;;;3.16;74.31;96784.97;4956933;28;20235;-82
2021/12/19 09:15:43;;;;;;;13.00;10.37;;;;;;;3.05;73.66;96785.72;4957066;29;20197;-82
2021/12/19 09:18:09;;;;;;;14.60;11.33;;;;;;;3.06;73.71;96773.81;4956515;29;20842;-82
2021/12/19 09:20:36;;;;;;;17.20;13.73;;;;;;;3.17;74.15;96768.00;4957182;28;20342;-82
2021/12/19 09:23:04;;;;;;;20.20;15.50;;;;;;;3.25;73.42;96769.13;4967376;28;20235;-82
2021/12/19 09:25:30;;;;;;;11.67;9.90;;;;;;;3.39;72.75;96773.28;4963686;28;20227;-82
2021/12/19 09:27:57;;;;;;;12.13;9.83;;;;;;;3.61;71.24;96770.91;4956720;28;20263;-81
2021/12/19 09:30:25;;;;;;;12.70;10.30;;;;;;;3.80;70.21;96763.63;4956787;29;20223;-81
2021/12/19 09:32:52;;;;;;;12.57;9.97;;;;;;;4.03;68.86;96764.59;4955605;28;20228;-82
2021/12/19 09:35:18;;;;;;;11.43;9.77;;;;;;;4.37;69.19;96767.31;4955174;28;20256;-81
2021/12/19 09:37:45;;;;;;;11.87;9.67;;;;;;;4.71;68.52;96770.81;4955157;28;20842;-82
2021/12/19 09:40:19;;;;;;;11.47;9.70;;;;;;;4.86;66.84;96775.59;4955639;28;20197;-81
2021/12/19 09:42:49;;;;;;;11.03;9.53;;;;;;;5.03;66.17;96769.25;4956117;28;20231;-81
2021/12/19 09:45:18;;;;;;;12.50;10.10;;;;;;;5.13;66.59;96769.41;4954561;29;20205;-82
2021/12/19 09:47:44;;;;;;;13.20;11.10;;;;;;;5.12;65.99;96766.03;4955126;28;20197;-82
2021/12/19 09:50:11;;;;;;;12.57;10.10;;;;;;;5.00;66.98;96769.50;4955772;28;20205;-82
2021/12/19 09:52:38;;;;;;;12.03;10.00;;;;;;;5.06;66.59;96760.56;4962440;28;20232;-82
2021/12/19 09:55:06;;;;;;;11.63;10.10;;;;;;;5.17;65.98;96752.94;4956499;29;20205;-82
2021/12/19 09:57:33;;;;;;;11.33;9.43;;;;;;;5.28;65.83;96747.00;4955768;29;20665;-82
2021/12/19 10:00:00;;;;;;;10.93;9.73;;;;;;;5.23;64.69;96734.59;4957015;29;20264;-82
2021/12/19 10:02:26;;;;;;;11.03;9.73;;;;;;;5.55;64.89;96727.06;4956961;28;20247;-82
2021/12/19 10:04:53;;;;;;;11.33;10.13;;;;;;;5.80;64.76;96724.22;4956652;28;20209;-83
2021/12/19 10:07:21;;;;;;;13.00;10.50;;;;;;;5.87;64.74;96716.91;4956200;29;20323;-82
2021/12/19 10:09:56;;;;;;;14.23;12.20;;;;;;;5.69;63.44;96710.66;4956355;28;20212;-83
2021/12/19 10:12:38;;;;;;;13.80;11.20;;;;;;;5.51;64.61;96707.78;4955989;28;20243;-83
2021/12/19 10:15:09;;;;;;;12.23;10.27;;;;;;;5.38;64.65;96702.81;4955983;29;20576;-82
2021/12/19 10:17:37;;;;;;;12.53;10.37;;;;;;;5.34;64.95;96695.50;4955541;29;20208;-82
2021/12/19 10:20:06;;;;;;;12.93;10.03;;;;;;;5.55;65.39;96684.44;4955837;29;20208;-82
2021/12/19 10:22:34;;;;;;;13.07;10.47;;;;;;;5.80;64.43;96674.84;4961585;28;20227;-82
2021/12/19 10:25:13;;;;;;;11.40;10.10;;;;;;;5.77;63.14;96664.91;4974909;28;20297;-82
2021/12/19 10:27:43;;;;;;;11.73;9.87;;;;;;;5.74;64.03;96655.72;4974593;28;20250;-82
2021/12/19 10:30:16;;;;;;;12.73;9.70;;;;;;;5.75;63.70;96654.78;4975740;28;20204;-82
2021/12/19 10:32:58;;;;;;;11.83;9.77;;;;;;;5.69;63.70;96645.03;4975165;28;20734;-82
2021/12/19 10:35:29;;;;;;;18.37;15.53;;;;;;;5.79;63.74;96635.72;4974948;28;20212;-82
2021/12/19 10:37:56;;;;;;;13.07;11.13;;;;;;;5.76;64.00;96627.50;4974714;28;20204;-82
2021/12/19 10:40:23;;;;;;;11.10;9.57;;;;;;;6.03;64.00;96629.63;4973545;28;20238;-82
2021/12/19 10:42:57;;;;;;;12.23;9.67;;;;;;;5.98;62.50;96618.94;4956014;28;20241;-82
2021/12/19 10:45:35;;;;;;;13.03;10.33;;;;;;;6.02;61.88;96610.91;4955980;28;20231;-82
2021/12/19 10:48:17;;;;;;;12.00;10.13;;;;;;;5.92;61.72;96606.69;4955291;28;20204;-81
2021/12/19 10:50:48;;;;;;;11.43;10.23;;;;;;;5.99;62.64;96602.66;4956176;28;20225;-82
2021/12/19 10:53:15;;;;;;;11.03;9.80;;;;;;;6.09;62.44;96601.81;4969050;28;20228;-83
2021/12/19 10:55:43;;;;;;;11.77;10.17;;;;;;;6.06;61.87;96596.16;4974526;28;20200;-82
2021/12/19 10:58:26;;;;;;;12.37;10.63;;;;;;;6.18;61.79;96593.41;4976745;28;20228;-82
2021/12/19 11:01:04;;;;;;;10.77;9.63;;;;;;;6.25;61.77;96586.06;4975636;28;20750;-82
2021/12/19 11:03:42;;;;;;;11.43;8.90;;;;;;;6.41;61.78;96583.03;4954908;28;20228;-82
2021/12/19 11:06:24;;;;;;;12.77;9.63;;;;;;;6.62;61.17;96576.16;4955204;29;20247;-82
2021/12/19 11:08:52;;;;;;;10.73;9.50;;;;;;;6.73;61.10;96573.53;4955767;28;20208;-82
2021/12/19 11:11:41;;;;;;;10.77;9.17;;;;;;;6.86;60.41;96563.06;4955321;28;20241;-82
2021/12/19 11:14:10;;;;;;;12.53;9.80;;;;;;;6.84;60.19;96555.50;4944942;28;20260;-82
2021/12/19 11:16:38;;;;;;;10.80;9.40;;;;;;;6.85;59.87;96562.25;4954432;29;20201;-82
2021/12/19 11:19:05;;;;;;;10.83;9.57;;;;;;;6.99;60.44;96555.94;4954895;28;20205;-82
2021/12/19 11:21:35;;;;;;;10.77;9.23;;;;;;;7.11;59.51;96552.38;4954703;28;20221;-82
2021/12/19 11:24:04;;;;;;;10.27;9.13;;;;;;;7.26;59.91;96547.66;4973902;28;20220;-83
2021/12/19 11:26:31;;;;;;;11.03;9.43;;;;;;;7.39;59.24;96543.09;4967730;28;20221;-82
2021/12/19 11:28:58;;;;;;;11.27;9.43;;;;;;;7.38;59.00;96544.03;4954819;29;20610;-82
2021/12/19 11:31:28;;;;;;;11.03;9.87;;;;;;;7.34;58.77;96542.69;4954900;28;20220;-82
2021/12/19 11:34:10;;;;;;;10.17;9.10;;;;;;;7.23;58.78;96535.13;4955373;28;20205;-82
2021/12/19 11:36:39;;;;;;;10.80;8.87;;;;;;;7.44;58.99;96527.34;4954427;28;20193;-82
2021/12/19 11:39:08;;;;;;;10.53;9.33;;;;;;;7.36;58.80;96512.63;4954188;28;20216;-83
2021/12/19 11:41:35;;;;;;;10.80;9.63;;;;;;;7.49;59.97;96513.19;4954591;28;20232;-83
2021/12/19 11:44:06;;;;;;;10.60;9.07;;;;;;;7.60;59.10;96510.47;4955343;29;20240;-82
2021/12/19 11:46:44;;;;;;;11.83;9.40;;;;;;;7.55;58.28;96507.50;4953972;29;20224;-82
2021/12/19 11:49:18;;;;;;;10.40;8.93;;;;;;;7.57;58.42;96502.25;4953813;28;20291;-82
2021/12/19 11:51:45;;;;;;;10.77;8.80;;;;;;;7.68;58.71;96485.94;4955528;28;20224;-83
2021/12/19 11:54:17;;;;;;;9.90;8.73;;;;;;;7.71;57.90;96478.75;4971324;28;20205;-82
2021/12/19 11:57:08;;;;;;;10.33;9.23;;;;;;;7.69;57.57;96474.75;4954522;28;20197;-82
2021/12/19 11:59:36;;;;;;;10.87;9.07;;;;;;;7.73;58.39;96474.31;4953966;29;20208;-83
2021/12/19 12:02:21;;;;;;;10.50;9.07;;;;;;;7.69;58.36;96464.50;4953407;28;20648;-82
2021/12/19 12:05:21;;;;;;;10.17;8.93;;;;;;;7.74;57.75;96465.69;4954493;29;20209;-83
2021/12/19 12:08:14;;;;;;;8.97;8.07;;;;;;;7.84;57.84;96468.25;4934675;29;20221;-83
2021/12/19 12:11:11;;;;;;;9.13;8.13;;;;;;;7.80;57.35;96472.00;4952644;29;20235;-83
2021/12/19 12:13:40;;;;;;;12.40;9.27;;;;;;;7.84;58.42;96465.69;4954060;28;20712;-83
2021/12/19 12:16:37;;;;;;;10.67;9.27;;;;;;;8.04;57.20;96454.44;4955529;28;20265;-83
2021/12/19 12:19:06;;;;;;;10.50;8.87;;;;;;;8.11;57.79;96441.84;4947360;29;20205;-83